createdAt,value
2019-05-19T00:00:32.894Z,16.40
2019-05-19T00:02:59.387Z,16.40
2019-05-19T00:05:25.710Z,16.30
2019-05-19T00:07:52.078Z,16.30
2019-05-19T00:10:18.430Z,16.30
2019-05-19T00:12:44.710Z,16.30
2019-05-19T00:15:11.250Z,16.20
2019-05-19T00:17:37.493Z,16.20
2019-05-19T00:20:06.112Z,16.30
2019-05-19T00:22:33.490Z,16.30
2019-05-19T00:24:59.794Z,16.20
2019-05-19T00:27:26.116Z,16.20
2019-05-19T00:29:52.589Z,16.10
2019-05-19T00:32:19.054Z,16.00
2019-05-19T00:34:45.365Z,16.00
2019-05-19T00:37:11.725Z,16.10
2019-05-19T00:39:38.090Z,16.10
2019-05-19T00:42:04.439Z,16.10
2019-05-19T00:44:30.818Z,16.00
2019-05-19T00:46:57.325Z,15.90
2019-05-19T00:49:23.788Z,15.80
2019-05-19T00:51:50.169Z,15.80
2019-05-19T00:54:16.607Z,15.80
2019-05-19T00:56:43.678Z,15.80
2019-05-19T00:59:10.489Z,15.80
2019-05-19T01:01:36.904Z,15.80
2019-05-19T01:04:03.283Z,15.90
2019-05-19T01:06:29.524Z,15.70
2019-05-19T01:08:55.884Z,15.60
2019-05-19T01:11:22.124Z,15.50
2019-05-19T01:13:48.606Z,15.60
2019-05-19T01:16:14.980Z,15.60
2019-05-19T01:18:41.362Z,15.50
2019-05-19T01:21:07.878Z,15.40
2019-05-19T01:23:34.180Z,15.50
2019-05-19T01:26:00.463Z,15.40
2019-05-19T01:28:26.810Z,15.40
2019-05-19T01:30:53.236Z,15.50
2019-05-19T01:33:19.501Z,15.40
2019-05-19T01:35:45.757Z,15.40
2019-05-19T01:38:12.137Z,15.40
2019-05-19T01:40:38.394Z,15.40
2019-05-19T01:43:04.764Z,15.30
2019-05-19T01:45:31.229Z,15.30
2019-05-19T01:47:57.526Z,15.40
2019-05-19T01:50:23.896Z,15.40
2019-05-19T01:52:50.279Z,15.40
2019-05-19T01:55:16.830Z,15.40
2019-05-19T01:57:43.322Z,15.40
2019-05-19T02:00:10.231Z,15.20
2019-05-19T02:02:36.515Z,15.10
2019-05-19T02:05:06.176Z,15.10
2019-05-19T02:07:32.575Z,15.20
2019-05-19T02:09:59.060Z,15.30
2019-05-19T02:12:25.443Z,15.20
2019-05-19T02:14:51.710Z,15.20
2019-05-19T02:17:18.048Z,15.30
2019-05-19T02:19:44.306Z,15.20
2019-05-19T02:22:10.664Z,15.10
2019-05-19T02:24:37.035Z,15.10
2019-05-19T02:27:03.382Z,15.10
2019-05-19T02:29:29.623Z,15.10
2019-05-19T02:31:55.906Z,15.10
2019-05-19T02:34:22.151Z,15.00
2019-05-19T02:36:48.594Z,15.00
2019-05-19T02:39:14.998Z,15.00
2019-05-19T02:41:43.854Z,15.00
2019-05-19T02:44:11.015Z,15.00
2019-05-19T02:46:39.291Z,15.00
2019-05-19T02:49:06.196Z,15.00
2019-05-19T02:51:34.137Z,15.10
2019-05-19T02:54:01.786Z,15.00
2019-05-19T02:56:29.289Z,15.00
2019-05-19T02:58:57.051Z,14.90
2019-05-19T03:01:23.326Z,14.80
2019-05-19T03:03:49.706Z,14.90
2019-05-19T03:06:16.131Z,14.90
2019-05-19T03:08:42.699Z,14.90
2019-05-19T03:11:09.113Z,14.80
2019-05-19T03:13:35.277Z,14.80
2019-05-19T03:16:01.651Z,14.80
2019-05-19T03:18:27.933Z,14.80
2019-05-19T03:21:14.065Z,14.70
2019-05-19T03:23:40.309Z,14.70
2019-05-19T03:26:06.559Z,14.70
2019-05-19T03:28:32.843Z,14.50
2019-05-19T03:31:16.040Z,14.50
2019-05-19T03:33:46.929Z,14.50
2019-05-19T03:36:13.362Z,14.40
2019-05-19T03:38:39.627Z,14.40
2019-05-19T03:41:05.864Z,14.40
2019-05-19T03:43:32.129Z,14.40
2019-05-19T03:45:58.471Z,14.40
2019-05-19T03:48:24.959Z,14.40
2019-05-19T03:50:51.248Z,14.30
2019-05-19T03:53:17.491Z,14.30
2019-05-19T03:55:43.736Z,14.40
2019-05-19T03:58:10.132Z,14.50
2019-05-19T04:00:36.438Z,14.40
2019-05-19T04:03:02.779Z,14.40
2019-05-19T04:05:29.230Z,14.40
2019-05-19T04:07:55.524Z,14.30
2019-05-19T04:10:21.904Z,14.30
2019-05-19T04:12:48.421Z,14.10
2019-05-19T04:15:14.942Z,14.10
2019-05-19T04:17:41.160Z,14.10
2019-05-19T04:20:08.029Z,14.10
2019-05-19T04:22:34.314Z,14.10
2019-05-19T04:25:00.645Z,14.00
2019-05-19T04:27:26.876Z,14.00
2019-05-19T04:29:53.128Z,14.10
2019-05-19T04:32:19.368Z,14.20
2019-05-19T04:34:45.664Z,14.00
2019-05-19T04:37:12.023Z,14.10
2019-05-19T04:39:38.381Z,14.10
2019-05-19T04:42:04.717Z,14.10
2019-05-19T04:44:31.029Z,14.10
2019-05-19T04:46:57.350Z,14.10
2019-05-19T04:49:23.724Z,14.10
2019-05-19T04:52:05.537Z,14.10
2019-05-19T04:54:18.194Z,14.00
2019-05-19T04:56:44.543Z,14.10
2019-05-19T04:59:10.886Z,14.00
2019-05-19T05:01:37.327Z,14.00
2019-05-19T05:04:03.686Z,14.00
2019-05-19T05:06:29.936Z,14.00
2019-05-19T05:08:56.216Z,13.90
2019-05-19T05:11:22.452Z,13.90
2019-05-19T05:13:48.686Z,14.00
2019-05-19T05:16:14.951Z,14.00
2019-05-19T05:18:41.252Z,14.10
2019-05-19T05:21:07.826Z,14.10
2019-05-19T05:23:34.208Z,14.10
2019-05-19T05:26:00.639Z,14.10
2019-05-19T05:28:26.887Z,14.20
2019-05-19T05:30:53.171Z,14.00
2019-05-19T05:33:19.419Z,14.00
2019-05-19T05:35:45.706Z,14.00
2019-05-19T05:38:11.967Z,14.00
2019-05-19T05:40:38.198Z,13.90
2019-05-19T05:43:04.471Z,13.90
2019-05-19T05:45:30.976Z,14.00
2019-05-19T05:47:57.284Z,14.10
2019-05-19T05:50:26.516Z,14.10
2019-05-19T05:52:52.800Z,14.20
2019-05-19T05:55:19.028Z,14.20
2019-05-19T05:57:45.270Z,14.60
2019-05-19T06:00:12.070Z,14.90
2019-05-19T06:02:38.617Z,15.30
2019-05-19T06:05:05.864Z,15.40
2019-05-19T06:07:32.224Z,15.60
2019-05-19T06:09:58.578Z,15.70
2019-05-19T06:12:24.852Z,15.90
2019-05-19T06:14:51.273Z,15.90
2019-05-19T06:17:17.592Z,16.00
2019-05-19T06:19:43.968Z,16.10
2019-05-19T06:22:10.152Z,16.10
2019-05-19T06:24:36.508Z,16.10
2019-05-19T06:27:02.880Z,16.00
2019-05-19T06:29:29.154Z,16.10
2019-05-19T06:31:57.428Z,16.20
2019-05-19T06:34:23.671Z,16.40
2019-05-19T06:36:50.061Z,16.40
2019-05-19T06:39:16.304Z,16.50
2019-05-19T06:41:42.520Z,16.50
2019-05-19T06:44:08.847Z,16.40
2019-05-19T06:46:35.249Z,16.10
2019-05-19T06:49:01.670Z,15.90
2019-05-19T06:51:28.078Z,15.90
2019-05-19T06:53:54.269Z,15.90
2019-05-19T06:56:20.644Z,15.80
2019-05-19T06:58:46.966Z,15.90
2019-05-19T07:01:13.219Z,15.80
2019-05-19T07:03:39.533Z,15.70
2019-05-19T07:06:05.738Z,15.70
2019-05-19T07:08:32.189Z,15.60
2019-05-19T07:10:58.461Z,15.60
2019-05-19T07:13:24.973Z,15.70
2019-05-19T07:15:51.232Z,15.70
2019-05-19T07:18:17.677Z,15.70
2019-05-19T07:20:43.907Z,15.60
2019-05-19T07:23:10.229Z,15.70
2019-05-19T07:25:36.498Z,15.80
2019-05-19T07:28:02.852Z,15.80
2019-05-19T07:30:29.142Z,15.80
2019-05-19T07:32:55.489Z,15.90
2019-05-19T07:35:21.744Z,16.00
2019-05-19T07:37:48.021Z,16.00
2019-05-19T07:40:14.916Z,16.00
2019-05-19T07:42:41.258Z,16.00
2019-05-19T07:45:07.950Z,15.80
2019-05-19T07:47:37.317Z,15.80
2019-05-19T07:50:04.799Z,15.80
2019-05-19T07:52:31.316Z,15.80
2019-05-19T07:54:57.711Z,15.90
2019-05-19T07:57:24.071Z,15.90
2019-05-19T07:59:50.557Z,15.90
2019-05-19T08:02:16.788Z,16.10
2019-05-19T08:04:43.439Z,16.20
2019-05-19T08:07:09.741Z,16.30
2019-05-19T08:09:36.106Z,16.40
2019-05-19T08:12:02.494Z,16.50
2019-05-19T08:14:28.729Z,16.60
2019-05-19T08:16:55.138Z,16.70
2019-05-19T08:19:21.443Z,16.80
2019-05-19T08:21:47.778Z,16.80
2019-05-19T08:24:14.070Z,16.60
2019-05-19T08:26:40.438Z,16.60
2019-05-19T08:29:06.979Z,16.70
2019-05-19T08:31:33.218Z,16.80
2019-05-19T08:33:59.775Z,16.90
2019-05-19T08:36:26.824Z,16.90
2019-05-19T08:38:53.065Z,16.90
2019-05-19T08:41:19.607Z,17.10
2019-05-19T08:43:45.994Z,17.20
2019-05-19T08:46:12.379Z,17.30
2019-05-19T08:48:38.661Z,17.30
2019-05-19T08:51:05.024Z,17.20
2019-05-19T08:53:31.462Z,17.20
2019-05-19T08:55:57.851Z,17.30
2019-05-19T08:58:24.409Z,17.40
2019-05-19T09:00:50.722Z,17.40
2019-05-19T09:03:16.971Z,17.50
2019-05-19T09:05:43.272Z,17.50
2019-05-19T09:08:09.671Z,17.50
2019-05-19T09:10:36.007Z,17.60
2019-05-19T09:13:02.625Z,17.60
2019-05-19T09:15:29.041Z,17.60
2019-05-19T09:17:55.317Z,17.60
2019-05-19T09:20:21.574Z,17.60
2019-05-19T09:22:47.845Z,17.70
2019-05-19T09:25:14.184Z,17.90
2019-05-19T09:27:40.522Z,18.10
2019-05-19T09:30:10.793Z,18.30
2019-05-19T09:32:37.155Z,18.40
2019-05-19T09:35:06.941Z,18.40
2019-05-19T09:37:33.219Z,18.60
2019-05-19T09:39:59.462Z,18.70
2019-05-19T09:42:25.731Z,18.80
2019-05-19T09:44:52.032Z,18.80
2019-05-19T09:47:18.292Z,18.80
2019-05-19T09:49:44.628Z,18.90
2019-05-19T09:52:11.026Z,18.90
2019-05-19T09:54:45.183Z,19.00
2019-05-19T09:57:05.621Z,19.20
2019-05-19T09:59:31.963Z,19.20
2019-05-19T10:01:58.434Z,19.20
2019-05-19T10:04:24.704Z,19.40
2019-05-19T10:06:51.097Z,19.50
2019-05-19T10:09:23.689Z,19.60
2019-05-19T10:12:04.717Z,19.60
2019-05-19T10:14:31.100Z,19.70
2019-05-19T10:16:57.967Z,19.80
2019-05-19T10:19:24.412Z,19.70
2019-05-19T10:21:50.808Z,19.90
2019-05-19T10:24:17.489Z,20.00
2019-05-19T10:26:44.003Z,20.00
2019-05-19T10:29:10.227Z,20.30
2019-05-19T10:31:36.496Z,20.30
2019-05-19T10:34:02.955Z,20.40
2019-05-19T10:36:29.174Z,20.40
2019-05-19T10:38:55.568Z,20.50
2019-05-19T10:41:21.799Z,20.60
2019-05-19T10:43:50.059Z,20.70
2019-05-19T10:46:16.249Z,20.90
2019-05-19T10:48:42.614Z,20.90
2019-05-19T10:51:08.983Z,21.00
2019-05-19T10:53:35.376Z,21.20
2019-05-19T10:56:01.694Z,21.30
2019-05-19T10:58:28.225Z,21.30
2019-05-19T11:00:54.614Z,21.50
2019-05-19T11:03:21.066Z,21.50
2019-05-19T11:05:47.579Z,21.70
2019-05-19T11:08:13.884Z,21.90
2019-05-19T11:10:40.159Z,21.90
2019-05-19T11:13:06.412Z,21.90
2019-05-19T11:15:32.703Z,21.90
2019-05-19T11:17:58.982Z,22.00
2019-05-19T11:20:25.189Z,22.20
2019-05-19T11:22:51.476Z,22.30
2019-05-19T11:25:31.581Z,22.40
2019-05-19T11:27:46.031Z,22.60
2019-05-19T11:30:12.485Z,22.70
2019-05-19T11:32:38.858Z,22.80
2019-05-19T11:35:05.435Z,23.00
2019-05-19T11:37:31.671Z,23.10
2019-05-19T11:39:57.903Z,23.20
2019-05-19T11:42:24.152Z,23.20
2019-05-19T11:44:50.418Z,23.30
2019-05-19T11:47:16.740Z,23.30
2019-05-19T11:49:43.178Z,23.20
2019-05-19T11:52:10.158Z,23.40
2019-05-19T11:54:36.374Z,23.50
2019-05-19T11:57:02.995Z,23.70
2019-05-19T11:59:29.900Z,23.70
2019-05-19T12:01:56.293Z,23.80
2019-05-19T12:04:22.529Z,24.00
2019-05-19T12:06:48.860Z,24.20
2019-05-19T12:09:15.355Z,24.30
2019-05-19T12:11:41.602Z,24.20
2019-05-19T12:14:07.858Z,24.20
2019-05-19T12:16:34.130Z,24.30
2019-05-19T12:19:00.557Z,24.40
2019-05-19T12:21:26.841Z,24.30
2019-05-19T12:23:53.220Z,24.50
2019-05-19T12:26:23.296Z,24.60
2019-05-19T12:28:47.765Z,24.70
2019-05-19T12:31:14.023Z,24.80
2019-05-19T12:33:51.475Z,24.90
2019-05-19T12:36:08.501Z,24.90
2019-05-19T12:38:34.731Z,25.00
2019-05-19T12:41:01.109Z,25.20
2019-05-19T12:43:27.504Z,25.00
2019-05-19T12:45:53.905Z,24.80
2019-05-19T12:48:20.162Z,24.70
2019-05-19T12:50:46.572Z,24.60
2019-05-19T12:53:12.816Z,24.80
2019-05-19T12:55:39.675Z,25.10
2019-05-19T12:58:05.919Z,25.20
2019-05-19T13:00:32.275Z,25.20
2019-05-19T13:02:58.564Z,25.40
2019-05-19T13:05:25.154Z,25.50
2019-05-19T13:07:51.531Z,25.50
2019-05-19T13:10:17.953Z,25.60
2019-05-19T13:12:44.240Z,25.70
2019-05-19T13:15:11.073Z,25.70
2019-05-19T13:17:37.366Z,25.50
2019-05-19T13:20:04.092Z,25.40
2019-05-19T13:22:30.302Z,25.50
2019-05-19T13:24:56.595Z,25.50
2019-05-19T13:27:25.037Z,25.50
2019-05-19T13:29:51.771Z,25.70
2019-05-19T13:32:19.904Z,25.50
2019-05-19T13:34:46.160Z,25.40
2019-05-19T13:37:12.769Z,25.10
2019-05-19T13:39:39.010Z,25.10
2019-05-19T13:42:05.263Z,24.90
2019-05-19T13:44:31.636Z,24.90
2019-05-19T13:46:58.124Z,24.90
2019-05-19T13:49:24.380Z,24.90
2019-05-19T13:51:50.737Z,25.00
2019-05-19T13:54:17.025Z,24.90
2019-05-19T13:56:43.473Z,25.00
2019-05-19T13:59:09.711Z,25.00
2019-05-19T14:01:36.171Z,24.90
2019-05-19T14:04:02.585Z,24.80
2019-05-19T14:06:28.841Z,24.60
2019-05-19T14:08:55.107Z,24.50
2019-05-19T14:11:21.546Z,24.50
2019-05-19T14:13:47.841Z,24.40
2019-05-19T14:16:14.102Z,24.50
2019-05-19T14:18:40.380Z,24.50
2019-05-19T14:21:06.696Z,24.40
2019-05-19T14:23:32.937Z,24.30
2019-05-19T14:25:59.425Z,24.30
2019-05-19T14:28:25.677Z,24.40
2019-05-19T14:30:52.152Z,24.40
2019-05-19T14:33:18.488Z,24.30
2019-05-19T14:35:44.732Z,24.30
2019-05-19T14:38:11.116Z,24.20
2019-05-19T14:40:37.517Z,24.30
2019-05-19T14:43:04.051Z,24.30
2019-05-19T14:45:31.061Z,24.10
2019-05-19T14:47:57.644Z,24.00
2019-05-19T14:50:23.917Z,24.10
2019-05-19T14:52:50.275Z,24.20
2019-05-19T14:55:16.751Z,24.20
2019-05-19T14:57:45.236Z,24.30
2019-05-19T15:00:12.832Z,24.30
2019-05-19T15:02:39.093Z,24.30
2019-05-19T15:05:05.835Z,24.40
2019-05-19T15:07:32.174Z,24.40
2019-05-19T15:09:58.418Z,24.50
2019-05-19T15:12:24.663Z,24.60
2019-05-19T15:14:50.969Z,24.60
2019-05-19T15:17:17.215Z,24.60
2019-05-19T15:19:43.502Z,24.60
2019-05-19T15:22:09.778Z,24.50
2019-05-19T15:24:36.184Z,24.60
2019-05-19T15:27:02.569Z,24.50
2019-05-19T15:29:28.946Z,24.40
2019-05-19T15:31:55.346Z,24.30
2019-05-19T15:34:21.692Z,24.40
2019-05-19T15:36:47.919Z,24.40
2019-05-19T15:39:14.709Z,24.10
2019-05-19T15:41:41.071Z,24.10
2019-05-19T15:44:07.390Z,23.90
2019-05-19T15:46:33.644Z,23.80
2019-05-19T15:48:59.991Z,23.80
2019-05-19T15:51:29.188Z,23.70
2019-05-19T15:53:54.553Z,23.70
2019-05-19T15:56:20.798Z,23.70
2019-05-19T15:58:47.135Z,23.60
2019-05-19T16:01:13.424Z,23.60
2019-05-19T16:03:39.699Z,23.50
2019-05-19T16:06:06.019Z,23.50
2019-05-19T16:08:32.296Z,23.50
2019-05-19T16:10:58.522Z,23.40
2019-05-19T16:13:24.819Z,23.40
2019-05-19T16:15:51.108Z,23.40
2019-05-19T16:18:17.341Z,23.50
2019-05-19T16:20:43.737Z,23.60
2019-05-19T16:23:10.249Z,23.50
2019-05-19T16:25:36.478Z,23.40
2019-05-19T16:28:02.933Z,23.30
2019-05-19T16:30:29.181Z,23.30
2019-05-19T16:32:55.467Z,23.30
2019-05-19T16:35:21.844Z,23.30
2019-05-19T16:37:48.104Z,23.30
2019-05-19T16:40:14.721Z,23.20
2019-05-19T16:42:40.992Z,23.20
2019-05-19T16:45:07.956Z,23.10
2019-05-19T16:47:34.224Z,22.90
2019-05-19T16:50:00.462Z,22.80
2019-05-19T16:55:18.708Z,22.90
2019-05-19T16:57:44.953Z,22.70
2019-05-19T17:00:11.325Z,22.80
2019-05-19T17:02:37.596Z,22.80
2019-05-19T17:05:05.348Z,22.80
2019-05-19T17:07:31.755Z,22.80
2019-05-19T17:09:58.159Z,22.70
2019-05-19T17:12:24.746Z,22.60
2019-05-19T17:14:51.120Z,22.60
2019-05-19T17:17:17.355Z,22.60
2019-05-19T17:19:43.629Z,22.70
2019-05-19T17:22:10.033Z,22.70
2019-05-19T17:24:36.348Z,22.60
2019-05-19T17:27:02.866Z,22.60
2019-05-19T17:29:29.114Z,22.50
2019-05-19T17:32:05.588Z,22.50
2019-05-19T17:34:23.724Z,22.40
2019-05-19T17:36:50.008Z,22.30
2019-05-19T17:39:18.163Z,22.30
2019-05-19T17:41:44.565Z,22.20
2019-05-19T17:44:10.829Z,22.20
2019-05-19T17:46:37.069Z,22.20
2019-05-19T17:49:03.348Z,22.10
2019-05-19T17:51:29.627Z,22.00
2019-05-19T17:53:56.082Z,22.00
2019-05-19T17:56:26.882Z,22.00
2019-05-19T17:58:53.305Z,22.00
2019-05-19T18:01:19.578Z,21.90
2019-05-19T18:03:46.339Z,21.80
2019-05-19T18:06:12.869Z,21.90
2019-05-19T18:08:39.311Z,21.80
2019-05-19T18:11:05.591Z,21.70
2019-05-19T18:13:32.055Z,21.70
2019-05-19T18:15:58.420Z,21.70
2019-05-19T18:18:24.789Z,21.60
2019-05-19T18:20:51.127Z,21.50
2019-05-19T18:23:17.743Z,21.30
2019-05-19T18:25:44.055Z,21.30
2019-05-19T18:28:14.386Z,21.30
2019-05-19T18:30:40.916Z,21.30
2019-05-19T18:33:07.658Z,21.30
2019-05-19T18:35:36.257Z,21.20
2019-05-19T18:38:05.909Z,21.10
2019-05-19T18:40:34.497Z,21.10
2019-05-19T18:43:01.761Z,21.10
2019-05-19T18:45:28.145Z,21.10
2019-05-19T18:47:54.433Z,21.00
2019-05-19T18:50:22.523Z,20.90
2019-05-19T18:52:51.276Z,20.80
2019-05-19T18:55:18.251Z,20.70
2019-05-19T18:57:44.655Z,20.60
2019-05-19T19:00:15.389Z,20.60
2019-05-19T19:02:43.830Z,20.50
2019-05-19T19:05:12.360Z,20.50
2019-05-19T19:07:49.804Z,20.50
2019-05-19T19:10:16.250Z,20.30
2019-05-19T19:12:43.594Z,20.30
2019-05-19T19:15:10.365Z,20.30
2019-05-19T19:17:38.300Z,20.30
2019-05-19T19:20:06.067Z,20.20
2019-05-19T19:22:32.306Z,20.20
2019-05-19T19:24:58.617Z,20.30
2019-05-19T19:27:29.815Z,20.20
2019-05-19T19:30:03.667Z,20.20
2019-05-19T19:32:27.193Z,20.20
2019-05-19T19:34:53.564Z,20.10
2019-05-19T19:37:20.998Z,20.10
2019-05-19T19:39:47.339Z,20.00
2019-05-19T19:42:15.332Z,19.90
2019-05-19T19:44:42.007Z,20.00
2019-05-19T19:47:10.688Z,19.90
2019-05-19T19:49:38.876Z,19.80
2019-05-19T19:52:07.697Z,19.80
2019-05-19T19:54:34.942Z,19.80
2019-05-19T19:57:01.614Z,19.80
2019-05-19T19:59:29.613Z,19.80
2019-05-19T20:01:57.008Z,19.80
2019-05-19T20:04:23.418Z,19.80
2019-05-19T20:06:49.777Z,19.90
2019-05-19T20:09:16.200Z,19.70
2019-05-19T20:11:45.584Z,19.70
2019-05-19T20:14:11.950Z,19.60
2019-05-19T20:16:38.208Z,19.50
2019-05-19T20:19:06.932Z,19.40
2019-05-19T20:21:33.292Z,19.40
2019-05-19T20:23:59.533Z,19.40
2019-05-19T20:26:27.282Z,19.40
2019-05-19T20:28:53.542Z,19.40
2019-05-19T20:31:19.853Z,19.30
2019-05-19T20:33:46.138Z,19.30
2019-05-19T20:36:12.605Z,19.30
2019-05-19T20:38:38.850Z,19.40
2019-05-19T20:41:07.057Z,19.40
2019-05-19T20:43:33.390Z,19.30
2019-05-19T20:45:59.698Z,19.30
2019-05-19T20:48:26.160Z,19.30
2019-05-19T20:50:52.643Z,19.20
2019-05-19T20:53:19.123Z,19.10
2019-05-19T20:55:45.566Z,19.00
2019-05-19T20:58:11.812Z,19.00
2019-05-19T21:00:50.114Z,18.90
2019-05-19T21:03:06.423Z,18.70
2019-05-19T21:05:32.709Z,18.60
2019-05-19T21:07:59.206Z,18.60
2019-05-19T21:10:25.482Z,18.50
2019-05-19T21:12:51.743Z,18.50
2019-05-19T21:15:18.151Z,18.40
2019-05-19T21:17:44.392Z,18.30
2019-05-19T21:20:10.895Z,18.20
2019-05-19T21:22:37.330Z,18.10
2019-05-19T21:25:05.696Z,18.00
2019-05-19T21:27:32.165Z,18.00
2019-05-19T21:29:58.367Z,17.90
2019-05-19T21:32:24.642Z,17.80
2019-05-19T21:34:51.017Z,17.70
2019-05-19T21:37:17.483Z,17.70
2019-05-19T21:39:43.773Z,17.70
2019-05-19T21:42:10.160Z,17.70
2019-05-19T21:44:36.531Z,17.70
2019-05-19T21:47:02.869Z,17.60
2019-05-19T21:49:29.158Z,17.50
2019-05-19T21:51:55.826Z,17.50
2019-05-19T21:54:22.228Z,17.50
2019-05-19T21:56:48.502Z,17.50
2019-05-19T21:59:14.748Z,17.50
2019-05-19T22:01:41.159Z,17.40
2019-05-19T22:04:07.427Z,17.40
2019-05-19T22:06:35.664Z,17.30
2019-05-19T22:09:03.047Z,17.30
2019-05-19T22:11:29.426Z,17.30
2019-05-19T22:13:55.691Z,17.20
2019-05-19T22:16:22.060Z,17.10
2019-05-19T22:18:48.379Z,17.00
2019-05-19T22:21:14.626Z,17.00
2019-05-19T22:23:40.993Z,17.00
2019-05-19T22:26:07.269Z,17.00
2019-05-19T22:28:33.502Z,17.10
2019-05-19T22:30:59.746Z,17.10
2019-05-19T22:33:26.286Z,17.00
2019-05-19T22:35:52.565Z,17.00
2019-05-19T22:38:18.950Z,17.00
2019-05-19T22:40:45.297Z,16.90
2019-05-19T22:43:11.697Z,16.90
2019-05-19T22:45:38.056Z,16.80
2019-05-19T22:48:04.347Z,16.80
2019-05-19T22:50:30.875Z,16.50
2019-05-19T22:52:57.110Z,16.50
2019-05-19T22:55:37.286Z,16.60
2019-05-19T22:58:03.763Z,16.50
2019-05-19T23:00:30.188Z,16.60
2019-05-19T23:02:56.387Z,16.60
2019-05-19T23:05:22.618Z,16.50
2019-05-19T23:07:48.863Z,16.50
2019-05-19T23:10:15.573Z,16.40
2019-05-19T23:12:41.818Z,16.40
2019-05-19T23:15:08.642Z,16.40
2019-05-19T23:17:35.163Z,16.40
2019-05-19T23:20:01.807Z,16.40
2019-05-19T23:22:28.131Z,16.30
2019-05-19T23:25:14.263Z,16.40
2019-05-19T23:27:40.551Z,16.30
2019-05-19T23:30:07.613Z,16.10
2019-05-19T23:32:33.951Z,16.10
2019-05-19T23:35:00.257Z,16.10
2019-05-19T23:37:26.544Z,16.10
2019-05-19T23:39:54.237Z,16.00
2019-05-19T23:42:20.598Z,16.10
2019-05-19T23:44:47.058Z,16.10
2019-05-19T23:47:13.382Z,16.00
2019-05-19T23:49:39.712Z,15.80
2019-05-19T23:52:06.008Z,15.80
2019-05-19T23:54:33.861Z,15.80
2019-05-19T23:57:00.114Z,15.80
2019-05-19T23:59:26.380Z,15.80
